Time;durP1;ratioP1;P1;durP2;ratioP2;P2;SDS_P1;SDS_P2;PMS_P1;PMS_P2;Temp;Humidity;BMP_temperature;BMP_pressure;BME280_temperature;BME280_humidity;BME280_pressure;Samples;Min_cycle;Max_cycle;Signal;HPM_P1;HPM_P2
2024/02/12 00:00:46;;;;;;;10.87;7.50;;;5.50;99.90;;;;;;5011370;28;20191;-52
2024/02/12 00:03:17;;;;;;;14.97;7.87;;;5.40;99.90;;;;;;5012599;28;20611;-53
2024/02/12 00:05:46;;;;;;;12.33;8.07;;;5.40;99.90;;;;;;5006801;28;20192;-53
2024/02/12 00:08:15;;;;;;;15.57;7.87;;;5.40;99.90;;;;;;5011285;28;20195;-53
2024/02/12 00:10:42;;;;;;;14.73;8.83;;;5.30;99.90;;;;;;5007818;28;20196;-54
2024/02/12 00:13:11;;;;;;;14.07;8.43;;;5.40;99.90;;;;;;4986893;28;20212;-54
2024/02/12 00:15:39;;;;;;;13.13;8.53;;;5.30;99.90;;;;;;5017171;28;20216;-54
2024/02/12 00:18:07;;;;;;;10.77;8.27;;;5.40;99.90;;;;;;4999811;28;20425;-53
2024/02/12 00:20:34;;;;;;;15.23;8.70;;;5.30;99.90;;;;;;5010013;28;20656;-52
2024/02/12 00:23:01;;;;;;;12.70;8.00;;;5.30;99.90;;;;;;5004338;28;20943;-50
2024/02/12 00:25:28;;;;;;;13.37;8.13;;;5.40;99.90;;;;;;5015693;28;20224;-54
2024/02/12 00:27:56;;;;;;;12.43;7.63;;;5.40;99.90;;;;;;5008515;28;20283;-52
2024/02/12 00:30:24;;;;;;;13.73;8.33;;;5.30;99.90;;;;;;4993038;28;20202;-52
2024/02/12 00:32:54;;;;;;;13.43;8.57;;;5.30;99.90;;;;;;5015083;28;20207;-52
2024/02/12 00:35:21;;;;;;;16.60;8.73;;;5.30;99.90;;;;;;5002678;28;20226;-51
2024/02/12 00:37:49;;;;;;;16.13;8.90;;;5.30;99.90;;;;;;5015629;28;20211;-50
2024/02/12 00:40:16;;;;;;;14.40;8.43;;;5.40;99.90;;;;;;5014361;28;20701;-53
2024/02/12 00:42:44;;;;;;;16.27;8.67;;;5.30;99.90;;;;;;5015183;28;20298;-52
2024/02/12 00:45:12;;;;;;;15.53;8.57;;;5.30;99.90;;;;;;4993932;28;20212;-55
2024/02/12 00:47:40;;;;;;;15.43;8.93;;;5.30;99.90;;;;;;5014827;28;20722;-53
2024/02/12 00:50:09;;;;;;;13.47;9.07;;;5.30;99.90;;;;;;5001092;28;20338;-51
2024/02/12 00:52:37;;;;;;;14.73;9.20;;;5.30;99.90;;;;;;5018023;28;20207;-54
2024/02/12 00:55:08;;;;;;;20.57;9.47;;;5.30;99.90;;;;;;5020417;28;20230;-53
2024/02/12 00:57:35;;;;;;;19.57;9.77;;;5.30;99.90;;;;;;5017680;28;20619;-54
2024/02/12 01:00:12;;;;;;;16.50;9.27;;;5.30;99.90;;;;;;5018066;28;20195;-54
2024/02/12 01:02:41;;;;;;;17.43;9.30;;;5.20;99.90;;;;;;4993563;28;20256;-53
2024/02/12 01:05:09;;;;;;;16.63;9.97;;;5.20;99.90;;;;;;5009276;28;20299;-49
2024/02/12 01:07:36;;;;;;;16.77;9.83;;;5.30;99.90;;;;;;5003736;28;20197;-53
2024/02/12 01:10:03;;;;;;;19.73;10.13;;;5.30;99.90;;;;;;5021646;28;21102;-52
2024/02/12 01:12:30;;;;;;;16.23;8.90;;;5.30;99.90;;;;;;5018378;28;20200;-52
2024/02/12 01:14:56;;;;;;;19.33;9.67;;;5.30;99.90;;;;;;5016764;28;20228;-49
2024/02/12 01:17:23;;;;;;;20.93;10.30;;;5.30;99.90;;;;;;4991782;28;20266;-51
2024/02/12 01:19:53;;;;;;;14.43;8.80;;;5.40;99.90;;;;;;5015932;28;20921;-53
2024/02/12 01:22:20;;;;;;;16.93;10.50;;;5.30;99.90;;;;;;5012287;28;20208;-53
2024/02/12 01:24:47;;;;;;;19.30;9.73;;;5.30;99.90;;;;;;5015566;28;20953;-50
2024/02/12 01:27:14;;;;;;;21.17;11.87;;;5.30;99.90;;;;;;5015020;28;20203;-53
2024/02/12 01:29:42;;;;;;;17.80;10.13;;;5.40;99.90;;;;;;5016614;28;20569;-54
2024/02/12 01:32:09;;;;;;;19.63;10.83;;;5.40;99.90;;;;;;4993459;28;20231;-53
2024/02/12 01:34:36;;;;;;;17.33;10.10;;;5.40;99.90;;;;;;5020925;28;20216;-51
2024/02/12 01:37:04;;;;;;;16.97;11.53;;;5.40;99.90;;;;;;5009549;28;20280;-53
2024/02/12 01:39:31;;;;;;;21.77;11.27;;;5.40;99.90;;;;;;5020583;28;20244;-52
2024/02/12 01:41:58;;;;;;;23.63;11.60;;;5.40;99.90;;;;;;5019028;28;20192;-51
2024/02/12 01:44:25;;;;;;;16.77;10.83;;;5.40;99.90;;;;;;5020676;28;20714;-50
2024/02/12 01:46:55;;;;;;;16.70;10.43;;;5.40;99.90;;;;;;5016192;28;20196;-54
2024/02/12 01:49:22;;;;;;;17.83;11.07;;;5.40;99.90;;;;;;4988278;28;20200;-49
2024/02/12 01:51:50;;;;;;;19.00;10.47;;;5.40;99.90;;;;;;5016605;28;20192;-52
2024/02/12 01:54:19;;;;;;;19.57;11.70;;;5.40;99.90;;;;;;5001034;28;20219;-54
2024/02/12 01:56:47;;;;;;;21.63;11.33;;;5.40;99.90;;;;;;5011348;28;20989;-51
2024/02/12 01:59:16;;;;;;;18.23;10.50;;;5.50;99.90;;;;;;5018630;28;20200;-54
2024/02/12 02:01:44;;;;;;;18.90;10.40;;;5.50;99.90;;;;;;5006317;28;20204;-53
2024/02/12 02:04:12;;;;;;;18.83;9.87;;;5.40;99.90;;;;;;4992060;28;20216;-51
2024/02/12 02:06:38;;;;;;;18.73;10.93;;;5.50;99.90;;;;;;5011422;28;20188;-54
2024/02/12 02:09:07;;;;;;;20.97;10.07;;;5.50;99.90;;;;;;5005804;28;20251;-51
2024/02/12 02:11:36;;;;;;;17.40;9.83;;;5.50;99.90;;;;;;5007758;28;20193;-53
2024/02/12 02:14:03;;;;;;;19.00;11.30;;;5.50;99.90;;;;;;5013999;28;20227;-50
2024/02/12 02:16:30;;;;;;;18.17;10.60;;;5.50;99.90;;;;;;5011546;28;20295;-54
2024/02/12 02:18:57;;;;;;;18.33;11.30;;;5.50;99.90;;;;;;5014124;28;20736;-54
2024/02/12 02:21:25;;;;;;;18.63;11.47;;;5.50;99.90;;;;;;4994331;28;20208;-54
2024/02/12 02:23:59;;;;;;;19.43;10.87;;;5.50;99.90;;;;;;5007429;28;20299;-52
2024/02/12 02:26:27;;;;;;;19.67;9.83;;;5.60;99.90;;;;;;5016961;28;20299;-54
2024/02/12 02:28:56;;;;;;;25.47;11.17;;;5.50;99.90;;;;;;5012368;28;20290;-50
2024/02/12 02:31:23;;;;;;;18.13;11.07;;;5.60;99.90;;;;;;5014158;28;20283;-53
2024/02/12 02:33:49;;;;;;;23.30;11.20;;;5.50;99.90;;;;;;5012874;28;20266;-51
2024/02/12 02:36:16;;;;;;;27.80;12.53;;;5.60;99.90;;;;;;4993830;28;20211;-54
2024/02/12 02:38:43;;;;;;;25.13;11.43;;;5.60;99.90;;;;;;5002127;28;20231;-52
2024/02/12 02:41:11;;;;;;;24.20;12.23;;;5.60;99.90;;;;;;5018235;28;20200;-53
2024/02/12 02:43:39;;;;;;;27.70;11.90;;;5.60;99.90;;;;;;5013119;28;20207;-50
2024/02/12 02:46:05;;;;;;;21.93;11.73;;;5.60;99.90;;;;;;5016731;28;20768;-51
2024/02/12 02:48:33;;;;;;;25.43;12.50;;;5.60;99.90;;;;;;5013555;28;20201;-50
2024/02/12 02:51:00;;;;;;;19.13;11.93;;;5.60;99.90;;;;;;4998454;28;20701;-51
2024/02/12 02:53:27;;;;;;;21.43;11.93;;;5.60;99.90;;;;;;5016402;28;20269;-53
2024/02/12 02:55:53;;;;;;;31.70;11.63;;;5.60;99.90;;;;;;5007736;28;20208;-53
2024/02/12 02:58:21;;;;;;;33.53;13.07;;;5.60;99.90;;;;;;5013706;28;20274;-53
2024/02/12 03:00:48;;;;;;;25.47;12.03;;;5.60;99.90;;;;;;5010027;28;20870;-52
2024/02/12 03:03:16;;;;;;;21.70;11.10;;;5.70;99.90;;;;;;5012768;28;20192;-54
2024/02/12 03:05:43;;;;;;;30.30;12.33;;;5.70;99.90;;;;;;4993649;28;20761;-52
2024/02/12 03:08:11;;;;;;;32.00;12.50;;;5.70;99.90;;;;;;5011786;28;20278;-51
2024/02/12 03:10:38;;;;;;;25.87;13.10;;;5.60;99.90;;;;;;5008859;28;20263;-48
2024/02/12 03:13:05;;;;;;;25.87;13.30;;;5.60;99.90;;;;;;5013154;28;20207;-53
2024/02/12 03:15:35;;;;;;;26.77;12.53;;;5.70;99.90;;;;;;5012690;28;20231;-53
2024/02/12 03:18:02;;;;;;;34.13;12.93;;;5.70;99.90;;;;;;5013055;28;20237;-51
2024/02/12 03:20:29;;;;;;;31.60;13.17;;;5.70;99.90;;;;;;4991480;28;20255;-53
2024/02/12 03:22:56;;;;;;;42.37;13.93;;;5.70;99.90;;;;;;5018201;28;20637;-52
2024/02/12 03:25:23;;;;;;;30.67;12.70;;;5.70;99.90;;;;;;5009607;28;20219;-52
2024/02/12 03:27:49;;;;;;;31.77;12.13;;;5.70;99.90;;;;;;5001668;28;20204;-51
2024/02/12 03:30:18;;;;;;;34.27;13.13;;;5.70;99.90;;;;;;5014467;28;20212;-51
2024/02/12 03:32:46;;;;;;;36.37;12.97;;;5.80;99.90;;;;;;5012758;28;20191;-51
2024/02/12 03:35:13;;;;;;;27.80;12.53;;;5.80;99.90;;;;;;5020098;28;20623;-53
2024/02/12 03:37:40;;;;;;;32.93;12.57;;;5.80;99.90;;;;;;4991534;28;20212;-50
2024/02/12 03:40:12;;;;;;;40.03;13.10;;;5.80;99.90;;;;;;5020254;28;20200;-51
2024/02/12 03:42:39;;;;;;;36.07;12.70;;;5.80;99.90;;;;;;4998015;28;20216;-53
2024/02/12 03:45:06;;;;;;;27.20;12.57;;;5.80;99.90;;;;;;5019927;28;20725;-53
2024/02/12 03:47:39;;;;;;;23.40;11.50;;;5.80;99.90;;;;;;5015447;28;20982;-50
2024/02/12 04:01:07;;;;;;;23.47;12.63;;;5.90;99.90;;;;;;5015750;28;20203;-48
2024/02/12 04:03:34;;;;;;;27.90;12.50;;;5.90;99.90;;;;;;5013820;28;20212;-53
2024/02/12 04:06:04;;;;;;;22.90;12.20;;;5.90;99.90;;;;;;5005031;28;20270;-49
2024/02/12 04:08:31;;;;;;;25.67;12.53;;;5.90;99.90;;;;;;4982949;28;20204;-55
2024/02/12 04:10:58;;;;;;;28.80;12.43;;;5.90;99.90;;;;;;5018238;28;20748;-51
2024/02/12 04:13:26;;;;;;;22.37;11.97;;;5.90;99.90;;;;;;5000952;28;20588;-54
2024/02/12 04:15:54;;;;;;;24.57;12.70;;;6.00;99.90;;;;;;5009552;28;20212;-52
2024/02/12 04:18:21;;;;;;;30.27;13.07;;;6.00;99.90;;;;;;5012903;28;20307;-54
2024/02/12 04:20:49;;;;;;;26.13;11.83;;;6.00;99.90;;;;;;5014302;28;20197;-52
2024/02/12 04:23:19;;;;;;;29.87;13.10;;;6.00;99.90;;;;;;5012046;28;20238;-56
2024/02/12 04:25:46;;;;;;;28.17;13.10;;;6.00;99.90;;;;;;5000981;28;21033;-51
2024/02/12 04:28:13;;;;;;;34.00;13.63;;;6.00;99.90;;;;;;5018569;28;20267;-51
2024/02/12 04:30:40;;;;;;;27.10;12.60;;;6.00;99.90;;;;;;5005675;28;20917;-51
2024/02/12 04:33:07;;;;;;;35.57;13.57;;;6.00;99.90;;;;;;5020784;28;20258;-53
2024/02/12 04:35:35;;;;;;;31.03;13.37;;;6.00;99.90;;;;;;5015435;28;20225;-51
2024/02/12 04:38:03;;;;;;;34.33;13.23;;;6.00;99.90;;;;;;5020484;28;20246;-48
2024/02/12 04:40:32;;;;;;;32.17;13.47;;;6.00;99.90;;;;;;4993441;28;20212;-53
2024/02/12 04:42:59;;;;;;;31.30;13.50;;;6.10;99.90;;;;;;5019602;28;20204;-51
2024/02/12 04:45:26;;;;;;;42.30;14.40;;;6.10;99.90;;;;;;5005416;28;20220;-54
2024/02/12 04:47:53;;;;;;;38.90;12.97;;;6.00;99.90;;;;;;5020746;28;20207;-51
2024/02/12 04:50:20;;;;;;;33.43;12.90;;;6.10;99.90;;;;;;5022136;28;20689;-58
2024/02/12 04:52:47;;;;;;;30.70;13.13;;;6.10;99.90;;;;;;5021103;28;20191;-49
2024/02/12 04:55:15;;;;;;;40.90;13.80;;;6.10;99.90;;;;;;5000616;28;20302;-55
2024/02/12 04:57:43;;;;;;;30.47;12.57;;;6.10;99.90;;;;;;5019576;28;20222;-49
2024/02/12 05:00:11;;;;;;;39.13;13.33;;;6.20;99.90;;;;;;5023213;28;20712;-50
2024/02/12 05:02:40;;;;;;;41.47;13.23;;;6.20;99.90;;;;;;4995783;28;20218;-48
2024/02/12 05:05:07;;;;;;;46.30;13.33;;;6.20;99.90;;;;;;5021781;28;20223;-53
2024/02/12 05:07:34;;;;;;;39.90;13.87;;;6.20;99.90;;;;;;5015807;28;21004;-50
2024/02/12 05:10:01;;;;;;;32.73;13.43;;;6.20;99.90;;;;;;4998875;28;20240;-51
2024/02/12 05:12:29;;;;;;;31.80;13.23;;;6.20;99.90;;;;;;5012710;28;20208;-55
2024/02/12 05:14:57;;;;;;;31.57;12.67;;;6.20;99.90;;;;;;5018813;28;20305;-51
2024/02/12 05:17:31;;;;;;;45.83;14.30;;;6.20;99.90;;;;;;4999854;28;20216;-54
2024/02/12 05:22:43;;;;;;;39.37;13.43;;;6.30;99.90;;;;;;5012724;28;20540;-55
2024/02/12 05:25:11;;;;;;;56.30;14.80;;;6.30;99.90;;;;;;4985670;28;20220;-55
2024/02/12 05:27:38;;;;;;;35.63;15.20;;;6.30;99.90;;;;;;5012265;28;20280;-55
2024/02/12 05:30:07;;;;;;;36.47;14.67;;;6.30;99.90;;;;;;5023103;28;20212;-49
2024/02/12 05:32:34;;;;;;;42.53;15.17;;;6.30;99.90;;;;;;5012648;28;20612;-54
2024/02/12 05:35:01;;;;;;;47.63;15.97;;;6.30;99.90;;;;;;5008319;28;20312;-53
2024/02/12 05:37:28;;;;;;;52.00;16.90;;;6.30;99.90;;;;;;5011359;28;20263;-55
2024/02/12 05:39:55;;;;;;;56.30;17.53;;;6.30;99.90;;;;;;5005006;28;20197;-49
2024/02/12 05:42:22;;;;;;;48.67;18.00;;;6.40;99.90;;;;;;4996974;28;20227;-50
2024/02/12 05:44:48;;;;;;;42.20;17.03;;;6.40;99.90;;;;;;5027127;28;20266;-48
2024/02/12 05:47:18;;;;;;;41.53;16.50;;;6.40;99.90;;;;;;5011010;28;20196;-50
2024/02/12 05:49:46;;;;;;;48.33;18.90;;;6.40;99.90;;;;;;4994806;28;20208;-52
2024/02/12 05:52:13;;;;;;;54.53;18.13;;;6.40;99.90;;;;;;5012664;28;20199;-49
2024/02/12 05:54:41;;;;;;;47.87;17.77;;;6.40;99.90;;;;;;5007573;28;20288;-50
2024/02/12 05:57:09;;;;;;;53.97;17.87;;;6.40;99.90;;;;;;4993064;28;20693;-48
2024/02/12 05:59:36;;;;;;;63.20;19.00;;;6.50;99.90;;;;;;5014132;28;20192;-51
2024/02/12 06:02:03;;;;;;;64.13;20.07;;;6.50;99.90;;;;;;5019321;28;20693;-53
2024/02/12 06:04:31;;;;;;;58.93;20.17;;;6.50;99.90;;;;;;5012823;28;20590;-51
2024/02/12 06:06:58;;;;;;;56.00;20.23;;;6.50;99.90;;;;;;5008571;28;20388;-50
2024/02/12 06:09:25;;;;;;;59.30;20.93;;;6.50;99.90;;;;;;4998676;28;20200;-54
2024/02/12 06:11:53;;;;;;;67.70;20.63;;;6.50;99.90;;;;;;5010784;28;20215;-48
2024/02/12 06:14:20;;;;;;;54.10;21.50;;;6.60;99.90;;;;;;4995171;28;20255;-50
2024/02/12 06:16:47;;;;;;;69.50;23.60;;;6.60;99.90;;;;;;5019213;28;20204;-51
2024/02/12 06:19:14;;;;;;;58.50;21.40;;;6.60;99.90;;;;;;5010525;28;20263;-53
2024/02/12 06:21:45;;;;;;;56.83;22.30;;;6.60;99.90;;;;;;5007438;28;20212;-50
2024/02/12 06:24:12;;;;;;;59.63;22.97;;;6.60;99.90;;;;;;5002571;28;20307;-51
2024/02/12 06:26:39;;;;;;;59.43;23.37;;;6.60;99.90;;;;;;4997959;28;20200;-51
2024/02/12 06:29:07;;;;;;;57.33;23.23;;;6.60;99.90;;;;;;5000645;28;20208;-51
2024/02/12 06:31:41;;;;;;;58.97;23.20;;;6.60;99.90;;;;;;5023056;28;20264;-53
2024/02/12 06:34:08;;;;;;;57.30;22.83;;;6.60;99.90;;;;;;5017765;28;20223;-49
2024/02/12 06:36:35;;;;;;;53.43;23.33;;;6.60;99.90;;;;;;5012027;28;20200;-48
2024/02/12 06:39:03;;;;;;;54.63;22.47;;;6.60;99.90;;;;;;5012706;28;20218;-48
2024/02/12 06:41:31;;;;;;;55.77;22.73;;;6.60;99.90;;;;;;5006833;28;20301;-55
2024/02/12 06:43:59;;;;;;;56.40;21.13;;;6.70;99.90;;;;;;4985287;28;20220;-54
2024/02/12 06:46:26;;;;;;;54.97;23.03;;;6.60;99.90;;;;;;5015102;28;20192;-51
2024/02/12 06:48:53;;;;;;;59.50;21.47;;;6.60;99.90;;;;;;5013772;28;20216;-49
2024/02/12 06:51:20;;;;;;;50.73;22.50;;;6.70;99.90;;;;;;5008975;28;20283;-51
2024/02/12 06:53:47;;;;;;;56.17;23.63;;;6.70;99.90;;;;;;5011876;28;20230;-48
2024/02/12 06:56:15;;;;;;;55.17;21.17;;;6.70;99.90;;;;;;5001103;28;20204;-50
2024/02/12 06:58:43;;;;;;;50.53;21.03;;;6.70;99.90;;;;;;4989723;28;22524;-49
2024/02/12 07:01:12;;;;;;;48.67;21.07;;;6.70;99.90;;;;;;5020759;28;20199;-47
2024/02/12 07:03:39;;;;;;;48.23;21.53;;;6.70;99.90;;;;;;5009910;28;20368;-47
2024/02/12 07:06:07;;;;;;;55.43;20.57;;;6.70;99.90;;;;;;5011573;28;20206;-46
2024/02/12 07:08:34;;;;;;;53.20;21.50;;;6.70;99.90;;;;;;5007607;28;20964;-52
2024/02/12 07:11:01;;;;;;;53.00;21.83;;;6.70;99.90;;;;;;5004476;28;20290;-46
2024/02/12 07:13:29;;;;;;;50.90;20.97;;;6.70;99.90;;;;;;5014762;28;20188;-52
2024/02/12 07:15:56;;;;;;;49.97;20.33;;;6.70;99.90;;;;;;4997661;28;20240;-45
2024/02/12 07:18:23;;;;;;;53.63;21.03;;;6.70;99.90;;;;;;5002760;28;20551;-46
2024/02/12 07:20:51;;;;;;;50.80;21.33;;;6.70;99.90;;;;;;5008322;28;20207;-48
2024/02/12 07:23:18;;;;;;;48.63;21.17;;;6.80;99.90;;;;;;4994695;28;20604;-49
2024/02/12 07:25:47;;;;;;;51.80;21.33;;;6.70;99.90;;;;;;4994453;28;20970;-48
2024/02/12 07:28:14;;;;;;;47.20;19.53;;;6.80;99.90;;;;;;5027573;28;20200;-50
2024/02/12 07:30:43;;;;;;;51.97;20.40;;;6.80;99.90;;;;;;4987271;28;20243;-52
2024/02/12 07:33:09;;;;;;;49.00;20.87;;;6.80;99.90;;;;;;5013903;28;20276;-47
2024/02/12 07:35:37;;;;;;;47.63;19.87;;;6.80;99.90;;;;;;4991366;28;20224;-50
2024/02/12 07:38:05;;;;;;;53.37;19.57;;;6.80;99.90;;;;;;5013765;28;20262;-46
2024/02/12 07:40:33;;;;;;;45.33;19.60;;;6.80;99.90;;;;;;4994133;28;20243;-47
2024/02/12 07:43:00;;;;;;;44.90;17.63;;;6.80;99.90;;;;;;5009162;28;20211;-50
2024/02/12 07:45:28;;;;;;;41.70;18.17;;;6.80;99.90;;;;;;4990257;28;20228;-47
2024/02/12 07:47:56;;;;;;;42.83;17.47;;;6.80;99.90;;;;;;5022821;28;20207;-49
2024/02/12 07:50:23;;;;;;;35.90;16.53;;;6.90;99.90;;;;;;5005500;28;20208;-55
2024/02/12 07:52:51;;;;;;;41.87;17.30;;;6.90;99.90;;;;;;5016707;28;20294;-50
2024/02/12 07:55:19;;;;;;;36.33;16.10;;;6.90;99.90;;;;;;5004355;28;20306;-53
2024/02/12 07:57:49;;;;;;;38.07;16.57;;;6.80;99.90;;;;;;5011523;28;20214;-49
2024/02/12 08:00:17;;;;;;;40.03;16.10;;;6.90;99.90;;;;;;5023055;28;20261;-53
2024/02/12 08:02:45;;;;;;;42.60;15.47;;;6.90;99.90;;;;;;4995437;28;20295;-52
2024/02/12 08:05:15;;;;;;;37.03;14.97;;;6.90;99.90;;;;;;5007687;28;20266;-53
2024/02/12 08:07:43;;;;;;;32.73;14.73;;;6.90;99.90;;;;;;4998215;28;20214;-49
2024/02/12 08:10:12;;;;;;;35.17;14.40;;;6.90;99.90;;;;;;5011149;28;20720;-48
2024/02/12 08:12:39;;;;;;;28.97;13.97;;;6.90;99.90;;;;;;5009964;28;20274;-51
2024/02/12 08:15:08;;;;;;;27.60;14.03;;;6.90;99.90;;;;;;5019347;28;20231;-52
2024/02/12 08:17:35;;;;;;;35.40;13.93;;;6.90;99.90;;;;;;4995871;28;20201;-47
2024/02/12 08:20:04;;;;;;;27.33;13.30;;;7.00;99.90;;;;;;5014608;28;20221;-48
2024/02/12 08:22:32;;;;;;;33.10;13.73;;;7.00;99.90;;;;;;5002396;28;20321;-48
2024/02/12 08:24:59;;;;;;;34.67;13.67;;;7.00;99.90;;;;;;5015272;28;20224;-46
2024/02/12 08:27:27;;;;;;;27.10;13.27;;;7.00;99.90;;;;;;5003907;28;20271;-52
2024/02/12 08:29:54;;;;;;;31.60;12.60;;;7.10;99.90;;;;;;5016501;28;20858;-49
2024/02/12 08:32:22;;;;;;;34.03;13.87;;;7.10;99.90;;;;;;4993601;28;20199;-50
2024/02/12 08:34:49;;;;;;;25.57;12.73;;;7.10;99.90;;;;;;5018486;28;20223;-46
2024/02/12 08:37:16;;;;;;;28.17;13.00;;;7.10;99.90;;;;;;5008605;28;20674;-50
2024/02/12 08:39:46;;;;;;;31.33;12.93;;;7.20;99.90;;;;;;5008651;28;20314;-46
2024/02/12 08:42:14;;;;;;;28.03;12.73;;;7.10;99.90;;;;;;5001537;28;20215;-48
2024/02/12 08:44:41;;;;;;;24.87;11.93;;;7.20;99.90;;;;;;5015777;28;20590;-47
2024/02/12 08:47:08;;;;;;;26.83;12.90;;;7.20;99.90;;;;;;5008593;28;20204;-52
2024/02/12 08:49:36;;;;;;;25.93;12.17;;;7.20;99.90;;;;;;5006029;28;20197;-47
2024/02/12 08:52:03;;;;;;;20.47;12.50;;;7.20;99.90;;;;;;5015838;28;20228;-46
2024/02/12 08:54:30;;;;;;;22.63;11.33;;;7.20;99.90;;;;;;5003711;28;20305;-50
2024/02/12 08:56:59;;;;;;;25.00;12.10;;;7.20;99.90;;;;;;5005581;28;20219;-47
2024/02/12 08:59:26;;;;;;;28.70;12.43;;;7.20;99.90;;;;;;5011603;28;20793;-46
2024/02/12 09:01:53;;;;;;;27.20;13.20;;;7.30;99.90;;;;;;5016822;28;20212;-49
2024/02/12 09:04:20;;;;;;;24.73;11.80;;;7.30;99.90;;;;;;4998516;28;20251;-48
2024/02/12 09:06:47;;;;;;;24.33;11.70;;;7.30;99.90;;;;;;5021197;28;20207;-47
2024/02/12 09:09:14;;;;;;;22.47;12.37;;;7.30;99.90;;;;;;5006950;28;20199;-49
2024/02/12 09:11:41;;;;;;;21.33;10.80;;;7.30;99.90;;;;;;5009567;28;20432;-47
2024/02/12 09:14:10;;;;;;;19.97;11.23;;;7.30;99.90;;;;;;5000374;28;20232;-50
2024/02/12 09:16:39;;;;;;;28.33;12.40;;;7.30;99.90;;;;;;5008484;28;20295;-52
2024/02/12 09:19:06;;;;;;;21.93;12.10;;;7.40;99.90;;;;;;5020088;28;20216;-50
2024/02/12 09:21:33;;;;;;;26.03;12.20;;;7.30;99.90;;;;;;5006532;28;20283;-44
2024/02/12 09:24:00;;;;;;;23.57;11.73;;;7.40;99.90;;;;;;5011033;28;20224;-46
2024/02/12 09:26:27;;;;;;;20.47;11.90;;;7.40;99.90;;;;;;5004511;28;20220;-46
2024/02/12 09:28:56;;;;;;;19.97;11.30;;;7.50;99.90;;;;;;5001504;28;20207;-45
2024/02/12 09:31:27;;;;;;;26.50;11.77;;;7.50;99.90;;;;;;5008147;28;20710;-50
2024/02/12 09:33:54;;;;;;;25.93;12.43;;;7.50;99.90;;;;;;5020960;28;20280;-48
2024/02/12 09:36:21;;;;;;;23.23;11.03;;;7.60;99.90;;;;;;4998122;28;20551;-53
2024/02/12 09:38:50;;;;;;;22.43;11.83;;;7.50;99.90;;;;;;5017357;28;20212;-49
2024/02/12 09:41:17;;;;;;;21.10;11.33;;;7.50;99.90;;;;;;5004600;28;20247;-51
2024/02/12 09:43:44;;;;;;;22.03;11.30;;;7.50;99.90;;;;;;5004819;28;20251;-46
2024/02/12 09:46:14;;;;;;;26.10;10.60;;;7.60;99.90;;;;;;5021163;28;20278;-50
2024/02/12 09:48:44;;;;;;;25.30;11.43;;;7.50;99.90;;;;;;5009153;28;20203;-45
2024/02/12 09:51:12;;;;;;;19.83;10.50;;;7.60;99.90;;;;;;4995848;28;20216;-49
2024/02/12 09:53:42;;;;;;;21.37;11.27;;;7.60;99.90;;;;;;5006244;28;20224;-48
2024/02/12 09:56:08;;;;;;;24.03;12.10;;;7.60;99.90;;;;;;4996732;28;20220;-50
2024/02/12 09:58:37;;;;;;;20.73;10.43;;;7.60;99.90;;;;;;5011765;28;20204;-48
2024/02/12 10:01:06;;;;;;;25.57;11.83;;;7.70;99.90;;;;;;5011611;28;20199;-47
2024/02/12 10:03:33;;;;;;;22.20;11.63;;;7.60;99.90;;;;;;5015831;28;20935;-47
2024/02/12 10:06:01;;;;;;;16.40;10.57;;;7.60;99.90;;;;;;4995642;28;20200;-47
2024/02/12 10:08:28;;;;;;;20.57;10.60;;;7.70;99.90;;;;;;5020513;28;20251;-52
2024/02/12 10:10:56;;;;;;;20.53;10.40;;;7.70;99.90;;;;;;5011346;28;20200;-47
2024/02/12 10:13:23;;;;;;;21.97;10.77;;;7.70;99.90;;;;;;5014388;28;20223;-45
2024/02/12 10:15:51;;;;;;;18.50;10.40;;;7.70;99.90;;;;;;5024860;28;20208;-46
2024/02/12 10:18:19;;;;;;;18.93;9.90;;;7.70;99.90;;;;;;5024522;28;20200;-46
2024/02/12 10:20:48;;;;;;;16.73;10.50;;;7.70;99.90;;;;;;4990361;28;20223;-45
2024/02/12 10:23:17;;;;;;;20.50;10.80;;;7.70;99.90;;;;;;5019344;28;20203;-47
2024/02/12 10:25:45;;;;;;;17.90;10.60;;;7.80;99.90;;;;;;5008756;28;20211;-50
2024/02/12 10:28:14;;;;;;;20.30;10.90;;;7.80;99.90;;;;;;5017906;28;20203;-48
2024/02/12 10:30:42;;;;;;;17.70;10.33;;;7.80;99.90;;;;;;5011914;28;20279;-51
2024/02/12 10:33:11;;;;;;;18.87;11.00;;;7.80;99.90;;;;;;5017254;28;20207;-48
2024/02/12 10:35:39;;;;;;;24.20;11.53;;;7.90;99.90;;;;;;4986802;28;20235;-51
2024/02/12 10:38:07;;;;;;;18.67;10.03;;;7.90;99.90;;;;;;5020586;28;20552;-48
2024/02/12 10:40:44;;;;;;;17.43;10.20;;;7.90;99.90;;;;;;5017793;28;20842;-50
2024/02/12 10:43:16;;;;;;;18.63;10.03;;;8.00;99.90;;;;;;5010769;28;20282;-47
2024/02/12 10:45:47;;;;;;;17.60;10.03;;;8.00;99.90;;;;;;5022519;28;20225;-47
2024/02/12 10:48:16;;;;;;;19.47;10.07;;;8.00;99.90;;;;;;5017496;28;20207;-51
2024/02/12 10:50:46;;;;;;;24.93;10.00;;;8.00;99.90;;;;;;4991436;28;21435;-48
2024/02/12 10:53:15;;;;;;;17.27;9.93;;;8.00;99.90;;;;;;5019688;28;20202;-48
2024/02/12 10:55:43;;;;;;;23.27;10.40;;;8.10;99.90;;;;;;5005252;28;20474;-47
2024/02/12 10:58:11;;;;;;;18.73;10.87;;;8.10;99.90;;;;;;5011010;28;20203;-52
2024/02/12 11:00:40;;;;;;;18.83;10.23;;;8.10;99.90;;;;;;5015796;28;20437;-51
2024/02/12 11:03:07;;;;;;;18.27;11.60;;;8.10;99.90;;;;;;5021854;28;20215;-49
2024/02/12 11:05:37;;;;;;;21.20;10.40;;;8.10;99.90;;;;;;5016806;28;20277;-51
2024/02/12 11:08:05;;;;;;;17.63;12.13;;;8.10;99.90;;;;;;4985361;28;20283;-45
2024/02/12 11:10:36;;;;;;;24.47;13.23;;;8.10;99.90;;;;;;5018847;28;20267;-51
2024/02/12 11:13:08;;;;;;;23.17;12.90;;;8.10;99.90;;;;;;5008983;28;22722;-49
2024/02/12 11:15:35;;;;;;;19.00;11.97;;;8.10;99.90;;;;;;5018900;28;20229;-52
2024/02/12 11:18:13;;;;;;;21.97;12.47;;;8.10;99.90;;;;;;5019071;28;20199;-45
2024/02/12 11:20:48;;;;;;;19.53;11.80;;;8.10;99.90;;;;;;5017228;28;20216;-45
2024/02/12 11:23:24;;;;;;;23.23;13.37;;;8.10;99.90;;;;;;4997495;28;20288;-48
2024/02/12 11:25:51;;;;;;;24.87;14.13;;;8.10;99.90;;;;;;5013001;28;20257;-46
2024/02/12 11:28:20;;;;;;;22.97;13.00;;;8.10;99.90;;;;;;5014507;28;20198;-49
2024/02/12 11:30:48;;;;;;;29.60;15.03;;;8.10;99.90;;;;;;5016089;28;20199;-53
2024/02/12 11:33:15;;;;;;;23.70;13.20;;;8.20;99.90;;;;;;5014332;28;20211;-46
2024/02/12 11:35:42;;;;;;;25.37;13.33;;;8.20;99.90;;;;;;5016981;28;20513;-53
2024/02/12 11:38:13;;;;;;;24.60;13.27;;;8.20;99.90;;;;;;4991628;28;20670;-46
2024/02/12 11:40:40;;;;;;;22.23;13.40;;;8.20;99.90;;;;;;5018312;28;20215;-50
2024/02/12 11:43:08;;;;;;;23.53;14.70;;;8.20;99.90;;;;;;5011070;28;20268;-46
2024/02/12 11:45:36;;;;;;;22.90;14.10;;;8.30;99.90;;;;;;5012146;28;20266;-52
2024/02/12 11:48:09;;;;;;;20.97;13.80;;;8.30;99.90;;;;;;5011084;28;20199;-47
2024/02/12 11:50:37;;;;;;;27.20;14.57;;;8.30;99.90;;;;;;5010164;28;20204;-49
2024/02/12 11:53:05;;;;;;;23.43;13.90;;;8.40;99.90;;;;;;5014450;28;20673;-44
2024/02/12 11:55:32;;;;;;;23.90;14.20;;;8.40;99.90;;;;;;4994049;28;20234;-46
2024/02/12 11:57:59;;;;;;;28.10;13.63;;;8.40;99.90;;;;;;5011545;28;20278;-46
2024/02/12 12:00:30;;;;;;;24.83;14.70;;;8.40;99.90;;;;;;5005016;28;21052;-48
2024/02/12 12:03:00;;;;;;;27.03;14.07;;;8.40;99.90;;;;;;5017245;28;20215;-51
2024/02/12 12:05:28;;;;;;;26.70;14.60;;;8.40;99.90;;;;;;5019595;28;20227;-47
2024/02/12 12:07:56;;;;;;;25.60;14.83;;;8.40;99.90;;;;;;5008091;28;20197;-49
2024/02/12 12:10:24;;;;;;;28.40;15.03;;;8.40;99.90;;;;;;4996425;28;20200;-50
2024/02/12 12:12:51;;;;;;;23.97;15.10;;;8.40;99.90;;;;;;5016527;28;20192;-49
2024/02/12 12:15:19;;;;;;;25.80;15.27;;;8.40;99.90;;;;;;5015765;28;20286;-49
2024/02/12 12:17:47;;;;;;;24.40;15.40;;;8.50;99.90;;;;;;5009765;28;20200;-52
2024/02/12 12:20:16;;;;;;;23.93;15.50;;;8.50;99.90;;;;;;5019595;28;20224;-50
2024/02/12 12:22:43;;;;;;;25.07;15.17;;;8.40;99.90;;;;;;5012036;28;20283;-51
2024/02/12 12:25:11;;;;;;;31.10;16.10;;;8.40;99.90;;;;;;4994617;28;20216;-45
2024/02/12 12:27:38;;;;;;;26.87;15.43;;;8.40;99.90;;;;;;5012470;28;20286;-52
2024/02/12 12:30:13;;;;;;;25.00;14.77;;;8.40;99.90;;;;;;5014306;28;20189;-47
2024/02/12 12:32:41;;;;;;;28.63;15.07;;;8.30;99.90;;;;;;5006464;28;20204;-48
2024/02/12 12:35:08;;;;;;;27.57;15.40;;;8.30;99.90;;;;;;5015566;28;20914;-47
2024/02/12 12:37:38;;;;;;;27.40;15.27;;;8.30;99.90;;;;;;5010890;28;20205;-52
2024/02/12 12:40:08;;;;;;;28.10;15.43;;;8.30;99.90;;;;;;4988511;28;20318;-47
2024/02/12 12:42:38;;;;;;;28.10;16.17;;;8.30;99.90;;;;;;5008309;28;20208;-50
2024/02/12 12:45:07;;;;;;;26.03;15.90;;;8.30;99.90;;;;;;5017717;28;20427;-47
2024/02/12 12:47:36;;;;;;;25.13;14.87;;;8.30;99.90;;;;;;5009014;28;20282;-49
2024/02/12 12:50:06;;;;;;;33.10;16.93;;;8.20;99.90;;;;;;5018938;28;20199;-47
2024/02/12 12:52:33;;;;;;;31.47;17.70;;;8.30;99.90;;;;;;5018578;28;20647;-47
2024/02/12 12:55:03;;;;;;;31.40;17.47;;;8.30;99.90;;;;;;4999243;28;20443;-48